Terminal Aerodrome Forecast
Issued by NWS Cleveland, OH

Home | Current Version | Previous Version | Text Only | Print | Product List | Glossary On
Versions: 1 2 3 4 5 6 7 8 9 10 11 12 13 14 15 16
000
FTUS41 KCLE 280836 AAA
TAFMFD
TAF AMD
KMFD 280836Z 2809/2906 30003KT 5SM BR BKN200
      TEMPO 2809/2812 2SM BR
     FM281400 04067KT P6SM FEW030
     FM281700 06007KT P6SM SCT040
     FM290000 07005KT P6SM SKC=

USA.gov is the U.S. government's official web portal to all federal, state and local government web resources and services.